LTBQ METAR and TAF | Updated Today

LTBQ METAR

Cengiz Topel Airport

Observation time: 63 min. ago

LTBQ 251750Z 00000KT CAVOK 17/12 Q1018 NOSIG

Need help? Read our tutorial on how to read METARs or read the parsed version below.

Cengiz Topel Airport (LTBQ) METAR

  • Weather conditions on Wed, 25 May 2022 17:50:00 +0000 (63 min. ago):
  • Present conditions: Dry
  • Clouds: Clear skies
  • Visibility: Greater than 10 km
  • Wind: Calm
  • Temperature: 17 celsius
  • Dew point: 12 celsius
  • Pressure: 1018 millibars
  • Remarks: None


Useful to know...

  • Codes: LTBQ/KCO
  • Airport elevation: 182ft
  • Municipality:
  • Country: Turkey
  • Continent: Asia

LTBQ TAF

Cengiz Topel Airport

TAF LTBQ 251640Z 2518/2603 VRB02KT CAVOK
Observation time: 2:13 hr. ago
Need help? Read our tutorial on how to read TAFs or read the parsed version below.

Parsed version of TAF for Cengiz Topel Airport (LTBQ)

  • From 25 May at 18:00 UTC, to day 26 of the month at 03:00 UTC
  • Visibility: Greater than 10 km
  • Wind: Variable at 2